Terminal Aerodrome Forecast
Issued by NWS

Home | Current Version | Previous Version | Text Only | Print | Product List | Glossary On
Versions: 1 2 3 4 5 6 7 8 9 10 11 12 13 14 15 16 17
000
FTUS44 KMAF 200000 AAA
TAFINK
TAF AMD
KINK 200015Z 2000/2024 03010KT P6SM FEW200
     FM200600 VRB05KT P6SM FEW150
     FM201500 13013KT P6SM FEW200=

USA.gov is the U.S. government's official web portal to all federal, state and local government web resources and services.